createdAt,value
2019-06-26T12:39:55.916Z,1011.25
2019-06-26T12:40:56.046Z,1011.26
2019-06-26T12:41:56.212Z,1011.18
2019-06-26T12:42:57.606Z,1011.22
2019-06-26T12:43:57.751Z,1011.20
2019-06-26T12:44:57.929Z,1011.15
2019-06-26T12:45:58.129Z,1011.20
2019-06-26T12:46:58.402Z,1011.23
2019-06-26T12:47:58.450Z,1011.10
2019-06-26T12:48:58.634Z,1011.20
2019-06-26T12:49:58.825Z,1011.20
2019-06-26T12:50:59.196Z,1011.20
2019-06-26T12:51:59.295Z,1011.17
2019-06-26T12:53:00.467Z,1011.20
2019-06-26T12:53:59.484Z,1011.20
2019-06-26T12:54:59.774Z,1011.26
2019-06-26T12:55:59.827Z,1011.22
2019-06-26T12:57:00.016Z,1011.23
2019-06-26T12:58:12.461Z,1011.22
2019-06-26T12:59:02.374Z,1011.20
2019-06-26T13:00:00.508Z,1011.24
2019-06-26T13:01:00.706Z,1011.22
2019-06-26T13:02:00.934Z,1011.22
2019-06-26T13:03:01.116Z,1011.21
2019-06-26T13:04:08.721Z,1011.28
2019-06-26T13:05:01.491Z,1011.24
2019-06-26T13:06:01.650Z,1011.27
2019-06-26T13:07:01.902Z,1011.26
2019-06-26T13:08:01.992Z,1011.25
2019-06-26T13:09:02.200Z,1011.28
2019-06-26T13:10:03.052Z,1011.16
2019-06-26T13:11:02.589Z,1011.29
2019-06-26T13:12:02.824Z,1011.25
2019-06-26T13:13:04.892Z,1011.28
2019-06-26T13:14:03.313Z,1011.25
2019-06-26T13:15:04.293Z,1011.27
2019-06-26T13:16:05.197Z,1011.27
2019-06-26T13:17:03.665Z,1011.24
2019-06-26T13:18:03.757Z,1011.21
2019-06-26T13:19:05.067Z,1011.20
2019-06-26T13:20:04.109Z,1011.20
2019-06-26T13:21:05.350Z,1011.17
2019-06-26T13:22:06.208Z,1011.17
2019-06-26T13:23:06.770Z,1011.21
2019-06-26T13:24:04.898Z,1011.23
2019-06-26T13:25:05.080Z,1011.33
2019-06-26T13:26:06.271Z,1011.31
2019-06-26T13:27:06.172Z,1011.24
2019-06-26T13:28:05.577Z,1011.26
2019-06-26T13:29:09.500Z,1011.20
2019-06-26T13:30:05.975Z,1011.25
2019-06-26T13:31:06.182Z,1011.20
2019-06-26T13:32:06.373Z,1011.26
2019-06-26T13:33:06.554Z,1011.22
2019-06-26T13:34:06.922Z,1011.15
2019-06-26T13:35:06.963Z,1011.16
2019-06-26T13:36:07.160Z,1011.25
2019-06-26T13:37:09.221Z,1011.14
2019-06-26T13:38:08.371Z,1011.26
2019-06-26T13:39:07.750Z,1011.25
2019-06-26T13:40:07.933Z,1011.24
2019-06-26T13:41:08.100Z,1011.29
2019-06-26T13:42:08.267Z,1011.29
2019-06-26T13:43:09.473Z,1011.24
2019-06-26T13:44:08.669Z,1011.24
2019-06-26T13:45:08.895Z,1011.20
2019-06-26T13:46:09.081Z,1011.16
2019-06-26T13:47:09.273Z,1011.21
2019-06-26T13:48:09.434Z,1011.18
2019-06-26T13:49:09.655Z,1011.20
2019-06-26T13:50:10.558Z,1011.23
2019-06-26T13:51:11.077Z,1011.26
2019-06-26T13:52:11.268Z,1011.25
2019-06-26T13:53:10.455Z,1011.22
2019-06-26T13:54:10.811Z,1011.20
2019-06-26T13:55:10.873Z,1011.21
2019-06-26T13:56:11.134Z,1011.25
2019-06-26T13:57:11.258Z,1011.17
2019-06-26T13:58:11.687Z,1011.26
2019-06-26T13:59:11.705Z,1011.20
2019-06-26T14:00:11.842Z,1011.17
2019-06-26T14:01:12.083Z,1011.14
2019-06-26T14:02:12.199Z,1011.21
2019-06-26T14:03:12.369Z,1011.21
2019-06-26T14:04:12.611Z,1011.21
2019-06-26T14:05:12.842Z,1011.25
2019-06-26T14:06:13.032Z,1011.24
2019-06-26T14:07:13.244Z,1011.21
2019-06-26T14:08:13.440Z,1011.24
2019-06-26T14:09:13.679Z,1011.16
2019-06-26T14:10:14.017Z,1011.19
2019-06-26T14:11:14.095Z,1011.10
2019-06-26T14:12:14.283Z,1011.11
2019-06-26T14:13:14.480Z,1011.16
2019-06-26T14:14:14.694Z,1011.13
2019-06-26T14:15:14.909Z,1011.12
2019-06-26T14:16:15.163Z,1011.15
2019-06-26T14:17:15.247Z,1011.17
2019-06-26T14:18:15.468Z,1011.14
2019-06-26T14:19:15.785Z,1011.16
2019-06-26T14:20:15.879Z,1011.19
2019-06-26T14:21:25.465Z,1011.18
2019-06-26T14:22:18.330Z,1011.13
2019-06-26T14:23:16.478Z,1011.16
2019-06-26T14:24:16.721Z,1011.18
2019-06-26T14:25:16.838Z,1011.12
2019-06-26T14:26:17.036Z,1011.21
2019-06-26T14:27:17.267Z,1011.25
2019-06-26T14:28:19.592Z,1011.25
2019-06-26T14:29:21.323Z,1011.22
2019-06-26T14:30:18.811Z,1011.32
2019-06-26T14:31:17.919Z,1011.29
2019-06-26T14:32:18.127Z,1011.30
2019-06-26T14:33:18.350Z,1011.14
2019-06-26T14:34:18.543Z,1011.29
2019-06-26T14:35:18.723Z,1011.18
2019-06-26T14:36:18.944Z,1011.26
2019-06-26T14:37:19.076Z,1011.25
2019-06-26T14:38:19.243Z,1011.20
2019-06-26T14:39:19.420Z,1011.26
2019-06-26T14:40:19.622Z,1011.20
2019-06-26T14:41:20.640Z,1011.21
2019-06-26T14:42:20.204Z,1011.19
2019-06-26T14:43:20.407Z,1011.16
2019-06-26T14:44:20.355Z,1011.17
2019-06-26T14:45:20.529Z,1011.21
2019-06-26T14:46:20.713Z,1011.22
2019-06-26T14:47:20.908Z,1011.20
2019-06-26T14:48:21.066Z,1011.20
2019-06-26T14:49:21.235Z,1011.19
2019-06-26T14:50:21.445Z,1011.18
2019-06-26T14:51:21.917Z,1011.24
2019-06-26T14:52:21.777Z,1011.17
2019-06-26T14:53:22.346Z,1011.23
2019-06-26T14:54:22.149Z,1011.15
2019-06-26T14:55:22.373Z,1011.11
2019-06-26T14:56:22.600Z,1011.14
2019-06-26T14:57:26.070Z,1011.20
2019-06-26T14:58:24.000Z,1011.19
2019-06-26T14:59:23.154Z,1011.14
2019-06-26T15:00:23.359Z,1011.17
2019-06-26T15:01:23.552Z,1011.15
2019-06-26T15:02:23.767Z,1011.19
2019-06-26T15:03:24.002Z,1011.14
2019-06-26T15:04:24.214Z,1011.20
2019-06-26T15:05:24.434Z,1011.20
2019-06-26T15:06:24.631Z,1011.21
2019-06-26T15:07:24.934Z,1011.17
2019-06-26T15:08:25.012Z,1011.16
2019-06-26T15:09:25.241Z,1011.09
2019-06-26T15:10:25.438Z,1011.12
2019-06-26T15:11:25.697Z,1011.17
2019-06-26T15:12:25.961Z,1011.13
2019-06-26T15:13:26.057Z,1011.11
2019-06-26T15:14:26.268Z,1011.14
2019-06-26T15:15:26.494Z,1011.09
2019-06-26T15:16:30.181Z,1011.09
2019-06-26T15:17:26.815Z,1011.12
2019-06-26T15:18:27.054Z,1011.15
2019-06-26T15:19:27.296Z,1011.08
2019-06-26T15:20:27.530Z,1011.04
2019-06-26T15:21:27.770Z,1011.09
2019-06-26T15:22:27.870Z,1011.02
2019-06-26T15:23:28.107Z,1011.12
2019-06-26T15:24:28.335Z,1011.05
2019-06-26T15:25:28.550Z,1011.01
2019-06-26T15:26:28.771Z,1011.02
2019-06-26T15:27:28.957Z,1011.09
2019-06-26T15:28:29.120Z,1011.12
2019-06-26T15:29:29.337Z,1011.02
2019-06-26T15:30:29.592Z,1011.06
2019-06-26T15:31:29.694Z,1011.08
2019-06-26T15:32:29.877Z,1011.05
2019-06-26T15:33:30.107Z,1011.04
2019-06-26T15:34:30.324Z,1011.06
2019-06-26T15:35:30.491Z,1011.03
2019-06-26T15:36:30.789Z,1010.98
2019-06-26T15:37:30.810Z,1010.94
2019-06-26T15:38:31.144Z,1010.98
2019-06-26T15:39:31.227Z,1010.94
2019-06-26T15:40:31.392Z,1010.91
2019-06-26T15:41:31.616Z,1010.86
2019-06-26T15:42:31.795Z,1010.94
2019-06-26T15:43:31.947Z,1010.96
2019-06-26T15:44:32.143Z,1010.92
2019-06-26T15:45:32.324Z,1010.86
2019-06-26T15:46:32.540Z,1010.92
2019-06-26T15:47:32.716Z,1010.89
2019-06-26T15:48:32.877Z,1010.91
2019-06-26T15:49:33.071Z,1010.87
2019-06-26T15:50:33.279Z,1010.91
2019-06-26T15:51:33.490Z,1010.93
2019-06-26T15:52:33.662Z,1010.96
2019-06-26T15:53:33.842Z,1010.95
2019-06-26T15:54:33.996Z,1010.84
2019-06-26T15:55:34.175Z,1010.94
2019-06-26T15:56:34.338Z,1010.89
2019-06-26T15:57:34.559Z,1010.83
2019-06-26T15:58:34.746Z,1010.86
2019-06-26T15:59:34.853Z,1010.89
2019-06-26T16:00:35.761Z,1010.84
2019-06-26T16:01:35.173Z,1010.86
2019-06-26T16:02:35.368Z,1010.94
2019-06-26T16:03:35.545Z,1010.84
2019-06-26T16:04:36.746Z,1010.86
2019-06-26T16:05:36.049Z,1010.83
2019-06-26T16:06:36.107Z,1010.85
2019-06-26T16:07:36.445Z,1010.81
2019-06-26T16:09:09.381Z,1010.83
2019-06-26T16:10:09.548Z,1010.83
2019-06-26T16:11:10.847Z,1010.88
2019-06-26T16:12:11.043Z,1010.83
2019-06-26T16:13:11.271Z,1010.82
2019-06-26T16:14:11.436Z,1010.88
2019-06-26T16:15:11.660Z,1010.89
2019-06-26T16:16:11.887Z,1010.84
2019-06-26T16:17:12.153Z,1010.90
2019-06-26T16:18:12.245Z,1010.89
2019-06-26T16:19:12.353Z,1010.90
2019-06-26T16:20:12.583Z,1010.91
2019-06-26T16:21:12.813Z,1010.95
2019-06-26T16:22:13.010Z,1010.87
2019-06-26T16:23:13.245Z,1010.85
2019-06-26T16:24:13.470Z,1010.87
2019-06-26T16:25:13.676Z,1010.87
2019-06-26T16:26:13.891Z,1010.88
2019-06-26T16:27:14.102Z,1010.82
2019-06-26T16:28:14.304Z,1010.84
2019-06-26T16:29:14.501Z,1010.92
2019-06-26T16:30:14.673Z,1010.93
2019-06-26T16:31:14.874Z,1010.92
2019-06-26T16:32:15.069Z,1010.95
2019-06-26T16:33:15.284Z,1010.92
2019-06-26T16:34:15.494Z,1010.93
2019-06-26T16:35:15.688Z,1010.88
2019-06-26T16:36:15.936Z,1010.89
2019-06-26T16:37:16.110Z,1010.89
2019-06-26T16:38:16.349Z,1010.87
2019-06-26T16:39:16.554Z,1010.94
2019-06-26T16:40:16.799Z,1011.00
2019-06-26T16:41:16.892Z,1010.92
2019-06-26T16:42:17.129Z,1010.96
2019-06-26T16:43:17.337Z,1010.96
2019-06-26T16:44:17.555Z,1010.96
2019-06-26T16:45:17.791Z,1011.01
2019-06-26T16:46:18.059Z,1011.00
2019-06-26T16:47:18.103Z,1011.03
2019-06-26T16:48:18.463Z,1011.02
2019-06-26T16:49:18.377Z,1011.11
2019-06-26T16:50:18.634Z,1011.10
2019-06-26T16:51:18.714Z,1011.07
2019-06-26T16:52:18.902Z,1011.11
2019-06-26T16:53:19.093Z,1011.10
2019-06-26T16:54:19.317Z,1011.10
2019-06-26T16:55:19.570Z,1011.15
2019-06-26T16:56:19.672Z,1011.11
2019-06-26T16:57:19.905Z,1011.13
2019-06-26T16:58:20.134Z,1011.18
2019-06-26T16:59:20.376Z,1011.08
2019-06-26T17:00:20.497Z,1011.14
2019-06-26T17:01:20.733Z,1011.12
2019-06-26T17:02:20.844Z,1011.14
2019-06-26T17:03:21.030Z,1011.19
2019-06-26T17:04:21.210Z,1011.10
2019-06-26T17:05:21.403Z,1011.17
2019-06-26T17:06:21.636Z,1011.11
2019-06-26T17:07:22.150Z,1011.16
2019-06-26T17:08:21.990Z,1011.19
2019-06-26T17:09:22.600Z,1011.18
2019-06-26T17:10:22.279Z,1011.28
2019-06-26T17:11:22.503Z,1011.31
2019-06-26T17:12:23.527Z,1011.25
2019-06-26T17:13:22.842Z,1011.34
2019-06-26T17:14:23.331Z,1011.33
2019-06-26T17:15:23.238Z,1011.30
2019-06-26T17:16:23.420Z,1011.30
2019-06-26T17:17:23.582Z,1011.31
2019-06-26T17:18:23.778Z,1011.30
2019-06-26T17:19:23.977Z,1011.29
2019-06-26T17:20:24.141Z,1011.32
2019-06-26T17:21:24.350Z,1011.31
2019-06-26T17:22:24.549Z,1011.27
2019-06-26T17:23:24.715Z,1011.24
2019-06-26T17:24:24.886Z,1011.33
2019-06-26T17:25:25.084Z,1011.29
2019-06-26T17:26:59.498Z,1011.33
2019-06-26T17:27:25.538Z,1011.37
2019-06-26T17:28:25.597Z,1011.32
2019-06-26T17:29:25.751Z,1011.44
2019-06-26T17:30:25.929Z,1011.48
2019-06-26T17:31:26.114Z,1011.49
2019-06-26T17:32:26.340Z,1011.44
2019-06-26T17:33:26.546Z,1011.47
2019-06-26T17:34:27.384Z,1011.48
2019-06-26T17:35:27.978Z,1011.48
2019-06-26T17:36:28.874Z,1011.56
2019-06-26T17:37:28.415Z,1011.56
2019-06-26T17:38:27.504Z,1011.56
2019-06-26T17:39:27.737Z,1011.59
2019-06-26T17:40:27.926Z,1011.55
2019-06-26T17:41:28.572Z,1011.58
2019-06-26T17:42:28.303Z,1011.55
2019-06-26T17:43:28.529Z,1011.66
2019-06-26T17:44:28.739Z,1011.69
2019-06-26T17:45:28.918Z,1011.69
2019-06-26T17:46:29.379Z,1011.73
2019-06-26T17:47:29.374Z,1011.62
2019-06-26T17:48:29.484Z,1011.74
2019-06-26T17:49:29.678Z,1011.78
2019-06-26T17:50:29.780Z,1011.70
2019-06-26T17:51:29.999Z,1011.72
2019-06-26T17:52:33.828Z,1011.76
2019-06-26T17:53:31.488Z,1011.85
2019-06-26T17:54:30.611Z,1011.78
2019-06-26T17:55:30.732Z,1011.83
2019-06-26T17:56:30.875Z,1011.78
2019-06-26T17:57:31.000Z,1011.77
2019-06-26T17:58:31.141Z,1011.79
2019-06-26T17:59:31.273Z,1011.78
2019-06-26T18:00:31.422Z,1011.81
2019-06-26T18:01:31.558Z,1011.83
2019-06-26T18:02:31.742Z,1011.82
2019-06-26T18:03:31.915Z,1011.82
2019-06-26T18:04:32.072Z,1011.81
2019-06-26T18:05:32.736Z,1011.94
2019-06-26T18:06:32.319Z,1011.90
2019-06-26T18:07:32.572Z,1011.94
2019-06-26T18:08:32.841Z,1012.01
2019-06-26T18:09:32.969Z,1011.99
2019-06-26T18:10:33.201Z,1012.00
2019-06-26T18:11:33.302Z,1011.97
2019-06-26T18:12:33.520Z,1012.07
2019-06-26T18:13:33.816Z,1012.08
2019-06-26T18:14:33.946Z,1012.05
2019-06-26T18:15:34.165Z,1012.02
2019-06-26T18:16:34.533Z,1012.07
2019-06-26T18:17:34.465Z,1012.08
2019-06-26T18:18:34.681Z,1012.05
2019-06-26T18:19:34.868Z,1012.10
2019-06-26T18:20:35.060Z,1012.15
2019-06-26T18:21:35.260Z,1012.05
2019-06-26T18:22:35.424Z,1012.10
2019-06-26T18:23:38.471Z,1012.13
2019-06-26T18:24:36.829Z,1012.13
2019-06-26T18:25:36.026Z,1012.15
2019-06-26T18:26:36.270Z,1012.13
2019-06-26T18:27:36.333Z,1012.17
2019-06-26T18:28:36.566Z,1012.22
2019-06-26T18:29:36.804Z,1012.25
2019-06-26T18:30:36.936Z,1012.26
2019-06-26T18:31:37.199Z,1012.29
2019-06-26T18:32:37.279Z,1012.31
2019-06-26T18:33:37.561Z,1012.31
2019-06-26T18:34:37.676Z,1012.26
2019-06-26T18:35:37.913Z,1012.36
2019-06-26T18:36:38.059Z,1012.35
2019-06-26T18:37:38.202Z,1012.38
2019-06-26T18:38:38.313Z,1012.41
2019-06-26T18:39:38.561Z,1012.33
2019-06-26T18:40:38.673Z,1012.43
2019-06-26T18:41:38.972Z,1012.37
2019-06-26T18:42:39.071Z,1012.37
2019-06-26T18:43:39.256Z,1012.41
2019-06-26T18:44:39.484Z,1012.45
2019-06-26T18:45:39.676Z,1012.48
2019-06-26T18:46:39.838Z,1012.49
2019-06-26T18:47:40.041Z,1012.51
2019-06-26T18:48:40.248Z,1012.44
2019-06-26T18:49:40.443Z,1012.51
2019-06-26T18:50:40.641Z,1012.61
2019-06-26T18:51:40.813Z,1012.54
2019-06-26T18:53:13.422Z,1012.60
2019-06-26T18:53:53.162Z,1012.55
2019-06-26T18:54:43.332Z,1012.56
2019-06-26T18:55:41.628Z,1012.62
2019-06-26T18:56:41.824Z,1012.61
2019-06-26T18:57:42.012Z,1012.58
2019-06-26T18:58:42.201Z,1012.56
2019-06-26T18:59:42.401Z,1012.65
2019-06-26T19:00:42.651Z,1012.68
2019-06-26T19:01:42.788Z,1012.67
2019-06-26T19:02:42.865Z,1012.64
2019-06-26T19:03:43.086Z,1012.66
2019-06-26T19:04:43.337Z,1012.69
2019-06-26T19:05:43.485Z,1012.60
2019-06-26T19:06:43.718Z,1012.60
2019-06-26T19:07:43.858Z,1012.66
2019-06-26T19:08:43.957Z,1012.64
2019-06-26T19:09:44.124Z,1012.72
2019-06-26T19:10:44.319Z,1012.71
2019-06-26T19:11:44.538Z,1012.77
2019-06-26T19:12:44.817Z,1012.72
2019-06-26T19:13:44.911Z,1012.70
2019-06-26T19:14:46.203Z,1012.71
2019-06-26T19:15:46.274Z,1012.81
2019-06-26T19:16:45.361Z,1012.76
2019-06-26T19:17:45.567Z,1012.83
2019-06-26T19:18:45.857Z,1012.83
2019-06-26T19:19:45.935Z,1012.83
2019-06-26T19:20:46.261Z,1012.87
2019-06-26T19:21:46.331Z,1012.81
2019-06-26T19:22:47.524Z,1012.83
2019-06-26T19:23:47.733Z,1012.87
2019-06-26T19:24:46.906Z,1012.89
2019-06-26T19:25:47.022Z,1012.89
2019-06-26T19:26:47.241Z,1012.89
2019-06-26T19:27:47.493Z,1012.91
2019-06-26T19:28:47.623Z,1012.91
2019-06-26T19:29:47.752Z,1012.92
2019-06-26T19:30:48.640Z,1013.01
2019-06-26T19:31:47.993Z,1012.92
2019-06-26T19:32:48.168Z,1012.98
2019-06-26T19:33:48.336Z,1012.99
2019-06-26T19:34:48.441Z,1013.00
2019-06-26T19:35:48.614Z,1012.98
2019-06-26T19:37:21.205Z,1013.08
2019-06-26T19:37:48.998Z,1013.08
2019-06-26T19:38:49.267Z,1013.12
2019-06-26T19:39:49.380Z,1013.05
2019-06-26T19:40:49.576Z,1013.02
2019-06-26T19:41:49.746Z,1013.06
2019-06-26T19:42:49.844Z,1013.09
2019-06-26T19:43:50.018Z,1013.18
2019-06-26T19:44:50.092Z,1013.15
2019-06-26T19:45:50.372Z,1013.15
2019-06-26T19:46:50.499Z,1013.12
2019-06-26T19:47:50.785Z,1013.16
2019-06-26T19:48:50.873Z,1013.20
2019-06-26T19:49:51.123Z,1013.14
2019-06-26T19:50:51.209Z,1013.20
2019-06-26T19:51:51.418Z,1013.20
2019-06-26T19:52:51.631Z,1013.31
2019-06-26T19:53:51.853Z,1013.27
2019-06-26T19:54:52.113Z,1013.29
2019-06-26T19:55:52.228Z,1013.31
2019-06-26T19:56:52.452Z,1013.34
2019-06-26T19:57:52.676Z,1013.33
2019-06-26T19:58:52.932Z,1013.32
2019-06-26T19:59:53.051Z,1013.32
2019-06-26T20:00:53.288Z,1013.30
2019-06-26T20:01:53.522Z,1013.28
2019-06-26T20:02:53.758Z,1013.29
2019-06-26T20:03:53.792Z,1013.30
2019-06-26T20:04:54.044Z,1013.30
2019-06-26T20:05:54.286Z,1013.30
2019-06-26T20:06:54.417Z,1013.34
2019-06-26T20:07:54.525Z,1013.37
2019-06-26T20:08:57.648Z,1013.29
2019-06-26T20:09:55.944Z,1013.36
2019-06-26T20:10:55.145Z,1013.35
2019-06-26T20:11:55.356Z,1013.39
2019-06-26T20:12:55.629Z,1013.40
2019-06-26T20:13:55.720Z,1013.43
2019-06-26T20:14:55.913Z,1013.43
2019-06-26T20:15:56.122Z,1013.46
2019-06-26T20:16:56.374Z,1013.49
2019-06-26T20:17:56.423Z,1013.48
2019-06-26T20:18:56.629Z,1013.50
2019-06-26T20:20:29.238Z,1013.53
2019-06-26T20:20:57.076Z,1013.48
2019-06-26T20:21:57.183Z,1013.51
2019-06-26T20:22:57.357Z,1013.51
2019-06-26T20:23:57.558Z,1013.52
2019-06-26T20:24:57.869Z,1013.47
2019-06-26T20:25:57.912Z,1013.48
2019-06-26T20:26:58.194Z,1013.57
2019-06-26T20:27:58.270Z,1013.54
2019-06-26T20:28:58.472Z,1013.54
2019-06-26T20:29:58.667Z,1013.51
2019-06-26T20:30:58.877Z,1013.53
2019-06-26T20:31:59.154Z,1013.48
2019-06-26T20:32:59.241Z,1013.50
2019-06-26T20:33:59.500Z,1013.54
2019-06-26T20:34:59.610Z,1013.61
2019-06-26T20:35:59.831Z,1013.58
2019-06-26T20:37:00.056Z,1013.55
2019-06-26T20:38:00.267Z,1013.61
2019-06-26T20:39:00.486Z,1013.60
2019-06-26T20:40:00.680Z,1013.56
2019-06-26T20:41:00.937Z,1013.61
2019-06-26T20:42:01.102Z,1013.62
2019-06-26T20:43:01.278Z,1013.54
2019-06-26T20:44:01.442Z,1013.57
2019-06-26T20:45:01.624Z,1013.53
2019-06-26T20:46:01.790Z,1013.57
2019-06-26T20:47:01.961Z,1013.55
2019-06-26T20:48:02.179Z,1013.55
2019-06-26T20:49:02.409Z,1013.65
2019-06-26T20:50:02.681Z,1013.57
2019-06-26T20:51:02.767Z,1013.62
2019-06-26T20:52:02.929Z,1013.64
2019-06-26T20:53:03.132Z,1013.65
2019-06-26T20:54:03.332Z,1013.64
2019-06-26T20:55:03.505Z,1013.62
2019-06-26T20:56:05.636Z,1013.71
2019-06-26T20:57:04.942Z,1013.67
2019-06-26T20:58:04.124Z,1013.71
2019-06-26T20:59:04.351Z,1013.70
2019-06-26T21:00:04.537Z,1013.71
2019-06-26T21:01:04.765Z,1013.72
2019-06-26T21:02:04.958Z,1013.70
2019-06-26T21:03:37.594Z,1013.72
2019-06-26T21:04:05.382Z,1013.69
2019-06-26T21:05:05.610Z,1013.71
2019-06-26T21:06:05.878Z,1013.67
2019-06-26T21:07:05.960Z,1013.66
2019-06-26T21:08:06.172Z,1013.67
2019-06-26T21:09:06.399Z,1013.65
2019-06-26T21:10:06.606Z,1013.71
2019-06-26T21:11:07.830Z,1013.74
2019-06-26T21:12:07.007Z,1013.78
2019-06-26T21:13:07.213Z,1013.73
2019-06-26T21:14:07.409Z,1013.83
2019-06-26T21:15:08.646Z,1013.80
2019-06-26T21:16:07.774Z,1013.80
2019-06-26T21:17:07.951Z,1013.79
2019-06-26T21:18:08.148Z,1013.80
2019-06-26T21:19:08.329Z,1013.85
2019-06-26T21:20:08.514Z,1013.88
2019-06-26T21:21:08.729Z,1013.80
2019-06-26T21:22:09.189Z,1013.79
2019-06-26T21:23:18.523Z,1013.79
2019-06-26T21:24:11.286Z,1013.78
2019-06-26T21:25:18.344Z,1013.85
2019-06-26T21:26:11.577Z,1013.83
2019-06-26T21:27:09.735Z,1013.82
2019-06-26T21:28:09.925Z,1013.81
2019-06-26T21:29:10.110Z,1013.88
2019-06-26T21:30:10.317Z,1013.86
2019-06-26T21:31:10.618Z,1013.86
2019-06-26T21:32:10.770Z,1013.91
2019-06-26T21:33:10.819Z,1013.93
2019-06-26T21:34:11.034Z,1014.04
2019-06-26T21:35:11.216Z,1014.01
2019-06-26T21:36:11.460Z,1014.02
2019-06-26T21:37:11.645Z,1013.99
2019-06-26T21:38:11.905Z,1013.99
2019-06-26T21:39:12.109Z,1013.95
2019-06-26T21:40:12.316Z,1014.00
2019-06-26T21:41:12.538Z,1014.01
2019-06-26T21:42:12.726Z,1014.01
2019-06-26T21:43:12.973Z,1013.97
2019-06-26T21:44:13.030Z,1014.08
2019-06-26T21:45:13.210Z,1013.98
2019-06-26T21:46:13.404Z,1014.05
2019-06-26T21:47:13.594Z,1014.05
2019-06-26T21:48:13.850Z,1014.01
2019-06-26T21:49:14.036Z,1014.07
2019-06-26T21:50:14.233Z,1013.99
2019-06-26T21:51:14.435Z,1014.01
2019-06-26T21:52:14.626Z,1014.00
2019-06-26T21:53:15.849Z,1014.07
2019-06-26T21:54:14.959Z,1014.13
2019-06-26T21:55:15.180Z,1014.07
2019-06-26T21:56:15.268Z,1014.16
2019-06-26T21:57:15.452Z,1014.23
2019-06-26T21:58:15.692Z,1014.09
2019-06-26T21:59:15.870Z,1014.24
2019-06-26T22:00:16.133Z,1014.31
2019-06-26T22:01:16.185Z,1014.27
2019-06-26T22:02:16.496Z,1014.29
2019-06-26T22:03:16.640Z,1014.25
2019-06-26T22:04:16.876Z,1014.27
2019-06-26T22:05:17.025Z,1014.30
2019-06-26T22:06:17.185Z,1014.30
2019-06-26T22:07:17.368Z,1014.29
2019-06-26T22:08:17.583Z,1014.28
2019-06-26T22:09:17.768Z,1014.25
2019-06-26T22:10:17.942Z,1014.28
2019-06-26T22:11:18.114Z,1014.32
2019-06-26T22:12:18.288Z,1014.27
2019-06-26T22:13:18.444Z,1014.33
2019-06-26T22:14:18.656Z,1014.29
2019-06-26T22:15:18.822Z,1014.30
2019-06-26T22:16:19.057Z,1014.30
2019-06-26T22:17:19.246Z,1014.32
2019-06-26T22:18:19.438Z,1014.34
2019-06-26T22:19:19.658Z,1014.36
2019-06-26T22:20:19.867Z,1014.32
2019-06-26T22:21:20.085Z,1014.37
2019-06-26T22:22:20.222Z,1014.34
2019-06-26T22:23:20.364Z,1014.31
2019-06-26T22:24:20.591Z,1014.41
2019-06-26T22:25:20.784Z,1014.37
2019-06-26T22:26:20.947Z,1014.35
2019-06-26T22:27:21.101Z,1014.41
2019-06-26T22:28:21.243Z,1014.39
2019-06-26T22:29:21.506Z,1014.41
2019-06-26T22:30:54.058Z,1014.42
2019-06-26T22:31:21.873Z,1014.45
2019-06-26T22:32:22.021Z,1014.46
2019-06-26T22:33:22.178Z,1014.46
2019-06-26T22:34:22.333Z,1014.43
2019-06-26T22:35:22.517Z,1014.50
2019-06-26T22:36:22.705Z,1014.51
2019-06-26T22:37:22.851Z,1014.47
2019-06-26T22:38:23.030Z,1014.49
2019-06-26T22:39:23.169Z,1014.55
2019-06-26T22:40:23.317Z,1014.47
2019-06-26T22:41:23.500Z,1014.48
2019-06-26T22:42:23.610Z,1014.51
2019-06-26T22:43:23.863Z,1014.49
2019-06-26T22:44:23.987Z,1014.62
2019-06-26T22:45:24.128Z,1014.58
2019-06-26T22:46:24.288Z,1014.53
2019-06-26T22:47:24.406Z,1014.59
2019-06-26T22:48:24.547Z,1014.54
2019-06-26T22:49:24.734Z,1014.64
2019-06-26T22:50:24.886Z,1014.60
2019-06-26T22:51:25.115Z,1014.69
2019-06-26T22:52:25.175Z,1014.66
2019-06-26T22:53:26.350Z,1014.61
2019-06-26T22:54:25.490Z,1014.63
2019-06-26T22:55:25.724Z,1014.66
2019-06-26T22:56:25.831Z,1014.62
2019-06-26T22:57:26.255Z,1014.62
2019-06-26T22:58:26.160Z,1014.63
2019-06-26T22:59:26.344Z,1014.64
2019-06-26T23:00:26.565Z,1014.61
2019-06-26T23:01:26.753Z,1014.69
2019-06-26T23:02:27.905Z,1014.66
2019-06-26T23:03:27.087Z,1014.61
2019-06-26T23:04:27.243Z,1014.70
2019-06-26T23:05:27.406Z,1014.66
2019-06-26T23:06:27.566Z,1014.62
2019-06-26T23:07:27.752Z,1014.62
2019-06-26T23:08:27.979Z,1014.59
2019-06-26T23:09:28.156Z,1014.67
2019-06-26T23:10:28.312Z,1014.65
2019-06-26T23:11:28.488Z,1014.72
2019-06-26T23:12:28.686Z,1014.69
2019-06-26T23:13:28.903Z,1014.66
2019-06-26T23:14:29.090Z,1014.67
2019-06-26T23:15:29.263Z,1014.78
2019-06-26T23:16:29.459Z,1014.76
2019-06-26T23:17:29.613Z,1014.75
2019-06-26T23:18:29.794Z,1014.82
2019-06-26T23:19:30.058Z,1014.75
2019-06-26T23:20:30.111Z,1014.81
2019-06-26T23:21:30.299Z,1014.80
2019-06-26T23:22:30.467Z,1014.83
2019-06-26T23:23:30.665Z,1014.74
2019-06-26T23:24:30.835Z,1014.78
2019-06-26T23:25:31.092Z,1014.83
2019-06-26T23:26:31.119Z,1014.85
2019-06-26T23:27:31.312Z,1014.83
2019-06-26T23:28:31.526Z,1014.79
2019-06-26T23:29:31.856Z,1014.87
2019-06-26T23:30:31.957Z,1014.87
2019-06-26T23:31:32.130Z,1014.90
2019-06-26T23:32:32.321Z,1014.90
2019-06-26T23:33:32.492Z,1014.97
2019-06-26T23:34:32.671Z,1014.89
2019-06-26T23:35:32.877Z,1014.93
2019-06-26T23:36:33.031Z,1014.89
2019-06-26T23:37:33.232Z,1014.88
2019-06-26T23:38:33.433Z,1014.95
2019-06-26T23:39:33.626Z,1014.95
2019-06-26T23:40:33.812Z,1014.96
2019-06-26T23:41:33.984Z,1015.04
2019-06-26T23:42:34.164Z,1014.99
2019-06-26T23:43:34.315Z,1015.01
2019-06-26T23:44:34.478Z,1015.04
2019-06-26T23:45:34.667Z,1015.07
2019-06-26T23:46:34.876Z,1015.07
2019-06-26T23:47:35.031Z,1015.13
2019-06-26T23:48:35.191Z,1015.05
2019-06-26T23:49:35.318Z,1015.10
2019-06-26T23:50:35.529Z,1015.10
2019-06-26T23:51:35.675Z,1015.10
2019-06-26T23:52:35.833Z,1015.12
2019-06-26T23:53:36.039Z,1015.14
2019-06-26T23:54:36.172Z,1015.14
2019-06-26T23:55:36.347Z,1015.20
2019-06-26T23:57:08.951Z,1015.16
2019-06-26T23:57:41.435Z,1015.16
2019-06-26T23:58:37.875Z,1015.17
2019-06-26T23:59:37.001Z,1015.21
